Time,TemperatureF,DewpointF,PressureIn,WindDirection,WindDirectionDegrees,WindSpeedMPH,WindSpeedGustMPH,Humidity,HourlyPrecipIn,Conditions,Clouds,dailyrainin,SolarRadiationWatts/m^2,SoftwareType,DateUTC
2013-09-21 00:00:00,63.5,31.5,29.63,NE,35,20.0,27.0,30,0.00,,,0.00,100,Wunderground v.1.15,2013-09-21 06:00:00,
2013-09-21 00:06:00,63.4,26.9,29.63,NE,42,20.0,27.0,25,0.00,,,0.00,100,Wunderground v.1.15,2013-09-21 06:06:00,
2013-09-21 00:12:00,63.7,27.2,29.63,NE,41,20.0,27.0,25,0.00,,,0.00,102,Wunderground v.1.15,2013-09-21 06:12:00,
2013-09-21 00:20:00,63.6,27.1,29.62,NE,37,19.0,27.0,25,0.00,,,0.00,102,Wunderground v.1.15,2013-09-21 06:20:00,
2013-09-21 00:26:00,63.5,28.0,29.63,NNE,31,18.0,27.0,26,0.00,,,0.00,102,Wunderground v.1.15,2013-09-21 06:26:00,
2013-09-21 00:32:00,63.6,28.1,29.63,NNE,32,17.0,27.0,26,0.00,,,0.00,102,Wunderground v.1.15,2013-09-21 06:32:00,
2013-09-21 00:38:00,63.8,26.3,29.63,NE,34,19.0,27.0,24,0.00,,,0.00,102,Wunderground v.1.15,2013-09-21 06:38:00,
2013-09-21 00:44:00,63.8,27.3,29.62,NE,40,20.0,27.0,25,0.00,,,0.00,104,Wunderground v.1.15,2013-09-21 06:44:00,
2013-09-21 00:50:00,63.7,29.1,29.62,NE,36,20.0,20.0,27,0.00,,,0.00,104,Wunderground v.1.15,2013-09-21 06:50:00,
2013-09-21 00:56:00,63.9,26.4,29.62,NE,34,20.0,27.0,24,0.00,,,0.00,104,Wunderground v.1.15,2013-09-21 06:56:00,
2013-09-21 01:02:00,64.1,28.5,29.62,NNE,31,19.0,27.0,26,0.00,,,0.00,104,Wunderground v.1.15,2013-09-21 07:02:00,
2013-09-21 01:08:00,64.0,27.4,29.62,NNE,28,19.0,27.0,25,0.00,,,0.00,104,Wunderground v.1.15,2013-09-21 07:08:00,
2013-09-21 01:14:00,63.9,28.3,29.61,NNE,29,18.0,27.0,26,0.00,,,0.00,104,Wunderground v.1.15,2013-09-21 07:14:00,
2013-09-21 01:20:00,63.9,28.3,29.61,NNE,29,20.0,20.0,26,0.00,,,0.00,104,Wunderground v.1.15,2013-09-21 07:20:00,
2013-09-21 01:28:00,63.8,27.3,29.61,North,8,20.0,27.0,25,0.00,,,0.00,104,Wunderground v.1.15,2013-09-21 07:28:00,
2013-09-21 01:34:00,62.1,24.8,29.61,North,10,17.0,27.0,24,0.00,,,0.00,100,Wunderground v.1.15,2013-09-21 07:34:00,
2013-09-21 01:40:00,61.6,29.0,29.61,NE,40,12.0,12.0,29,0.00,,,0.00,97,Wunderground v.1.15,2013-09-21 07:40:00,
2013-09-21 01:46:00,62.2,25.9,29.61,NE,36,11.0,27.0,25,0.00,,,0.00,95,Wunderground v.1.15,2013-09-21 07:46:00,
2013-09-21 01:52:00,63.2,27.7,29.60,NNE,27,14.0,27.0,26,0.00,,,0.00,98,Wunderground v.1.15,2013-09-21 07:52:00,
2013-09-21 01:58:00,63.3,26.8,29.61,NE,35,13.0,27.0,25,0.00,,,0.00,98,Wunderground v.1.15,2013-09-21 07:58:00,
2013-09-21 02:04:00,63.2,29.5,29.61,NE,48,11.0,27.0,28,0.00,,,0.00,98,Wunderground v.1.15,2013-09-21 08:04:00,
2013-09-21 02:14:00,62.9,32.6,29.60,ESE,120,10.0,27.0,32,0.00,,,0.00,98,Wunderground v.1.15,2013-09-21 08:14:00,
2013-09-21 02:20:00,61.6,29.0,29.60,SE,143,6.0,6.0,29,0.00,,,0.00,93,Wunderground v.1.15,2013-09-21 08:20:00,
2013-09-21 02:26:00,60.9,29.2,29.60,SE,143,3.0,27.0,30,0.00,,,0.00,86,Wunderground v.1.15,2013-09-21 08:26:00,
2013-09-21 02:34:00,60.3,31.8,29.60,SE,143,1.0,27.0,34,0.00,,,0.00,81,Wunderground v.1.15,2013-09-21 08:34:00,
2013-09-21 02:40:00,59.6,32.6,29.59,SSW,213,2.0,27.0,36,0.00,,,0.00,79,Wunderground v.1.15,2013-09-21 08:40:00,
2013-09-21 02:46:00,57.2,33.1,29.59,SW,218,6.0,27.0,40,0.00,,,0.00,72,Wunderground v.1.15,2013-09-21 08:46:00,
2013-09-21 02:52:00,55.0,31.7,29.59,SSW,209,7.0,27.0,41,0.00,,,0.00,69,Wunderground v.1.15,2013-09-21 08:52:00,
2013-09-21 02:58:00,54.1,32.1,29.59,SW,217,7.0,27.0,43,0.00,,,0.00,65,Wunderground v.1.15,2013-09-21 08:58:00,
2013-09-21 03:04:00,54.4,31.8,29.59,WSW,245,6.0,27.0,42,0.00,,,0.00,63,Wunderground v.1.15,2013-09-21 09:04:00,
2013-09-21 03:10:00,54.2,31.0,29.59,SSW,208,5.0,5.0,41,0.00,,,0.00,63,Wunderground v.1.15,2013-09-21 09:10:00,
2013-09-21 03:16:00,54.6,33.1,29.58,SW,215,5.0,27.0,44,0.00,,,0.00,63,Wunderground v.1.15,2013-09-21 09:16:00,
2013-09-21 03:26:00,54.3,35.0,29.58,NNW,328,3.0,27.0,48,0.00,,,0.00,63,Wunderground v.1.15,2013-09-21 09:26:00,
2013-09-21 03:32:00,53.2,36.0,29.58,NW,325,3.0,27.0,52,0.00,,,0.00,60,Wunderground v.1.15,2013-09-21 09:32:00,
2013-09-21 03:38:00,51.9,36.7,29.59,NNE,18,4.0,27.0,56,0.00,,,0.00,56,Wunderground v.1.15,2013-09-21 09:38:00,
2013-09-21 03:44:00,57.2,27.6,29.58,NE,44,10.0,27.0,32,0.00,,,0.00,63,Wunderground v.1.15,2013-09-21 09:44:00,
2013-09-21 03:50:00,61.8,30.0,29.58,NE,50,17.0,17.0,30,0.00,,,0.00,77,Wunderground v.1.15,2013-09-21 09:50:00,
2013-09-21 03:56:00,63.0,27.5,29.57,NE,39,18.0,27.0,26,0.00,,,0.00,88,Wunderground v.1.15,2013-09-21 09:56:00,
2013-09-21 04:02:00,63.3,27.8,29.57,NE,51,19.0,27.0,26,0.00,,,0.00,93,Wunderground v.1.15,2013-09-21 10:02:00,
2013-09-21 04:10:00,63.5,29.8,29.58,NE,43,20.0,27.0,28,0.00,,,0.00,98,Wunderground v.1.15,2013-09-21 10:10:00,
2013-09-21 04:16:00,63.6,29.9,29.57,NE,48,21.0,27.0,28,0.00,,,0.00,100,Wunderground v.1.15,2013-09-21 10:16:00,
2013-09-21 04:22:00,63.6,28.1,29.57,NE,44,21.0,27.0,26,0.00,,,0.00,100,Wunderground v.1.15,2013-09-21 10:22:00,
2013-09-21 04:28:00,63.3,26.8,29.57,NE,52,20.0,27.0,25,0.00,,,0.00,100,Wunderground v.1.15,2013-09-21 10:28:00,
2013-09-21 04:34:00,63.2,29.5,29.56,NE,42,20.0,27.0,28,0.00,,,0.00,100,Wunderground v.1.15,2013-09-21 10:34:00,
2013-09-21 04:40:00,63.4,29.7,29.56,NE,51,22.0,27.0,28,0.00,,,0.00,102,Wunderground v.1.15,2013-09-21 10:40:00,
2013-09-21 04:46:00,63.5,29.8,29.56,NE,42,23.0,27.0,28,0.00,,,0.00,102,Wunderground v.1.15,2013-09-21 10:46:00,
2013-09-21 04:54:00,63.6,29.0,29.56,NE,40,23.0,27.0,27,0.00,,,0.00,102,Wunderground v.1.15,2013-09-21 10:54:00,
2013-09-21 05:00:00,63.5,28.0,29.56,NNE,25,20.0,20.0,26,0.00,,,0.00,102,Wunderground v.1.15,2013-09-21 11:00:00,
2013-09-21 05:06:00,60.8,32.2,29.56,WNW,302,11.0,27.0,34,0.00,,,0.00,95,Wunderground v.1.15,2013-09-21 11:06:00,
2013-09-21 05:12:00,55.1,31.8,29.56,WNW,293,6.0,27.0,41,0.00,,,0.00,83,Wunderground v.1.15,2013-09-21 11:12:00,
2013-09-21 05:20:00,51.3,34.7,29.55,WNW,302,6.0,6.0,53,0.00,,,0.00,65,Wunderground v.1.15,2013-09-21 11:20:00,
2013-09-21 05:26:00,50.6,34.6,29.55,WNW,285,6.0,27.0,54,0.00,,,0.00,58,Wunderground v.1.15,2013-09-21 11:26:00,
2013-09-21 05:32:00,51.3,33.3,29.55,SW,230,7.0,27.0,50,0.00,,,0.00,56,Wunderground v.1.15,2013-09-21 11:32:00,
2013-09-21 05:38:00,51.4,33.9,29.55,West,271,8.0,27.0,51,0.00,,,0.00,56,Wunderground v.1.15,2013-09-21 11:38:00,
2013-09-21 05:44:00,50.5,33.0,29.55,WSW,248,9.0,27.0,51,0.00,,,0.00,54,Wunderground v.1.15,2013-09-21 11:44:00,
2013-09-21 05:50:00,49.9,35.3,29.55,West,280,8.0,27.0,57,0.00,,,0.00,111,Wunderground v.1.15,2013-09-21 11:50:00,
2013-09-21 05:56:00,49.6,33.2,29.55,WSW,253,7.0,27.0,53,0.00,,,0.00,51,Wunderground v.1.15,2013-09-21 11:56:00,
2013-09-21 06:02:00,49.0,33.5,29.55,WSW,239,6.0,13.0,55,0.00,,,0.00,105,Wunderground v.1.15,2013-09-21 12:02:00,
2013-09-21 06:08:00,48.8,32.9,29.54,SW,220,7.0,13.0,54,0.00,,,0.00,49,Wunderground v.1.15,2013-09-21 12:08:00,
2013-09-21 06:16:00,48.6,33.6,29.55,WSW,246,6.0,13.0,56,0.00,,,0.00,102,Wunderground v.1.15,2013-09-21 12:16:00,
2013-09-21 06:22:00,48.4,32.5,29.54,WSW,246,5.0,13.0,54,0.00,,,0.00,47,Wunderground v.1.15,2013-09-21 12:22:00,
2013-09-21 06:28:00,48.4,33.0,29.54,WSW,246,3.0,13.0,55,0.00,,,0.00,98,Wunderground v.1.15,2013-09-21 12:28:00,
2013-09-21 06:36:00,48.6,33.1,29.54,NNW,341,2.0,13.0,55,0.00,,,0.00,97,Wunderground v.1.15,2013-09-21 12:36:00,
2013-09-21 06:42:00,48.4,34.3,29.54,NNW,341,3.0,13.0,58,0.00,,,0.00,44,Wunderground v.1.15,2013-09-21 12:42:00,
2013-09-21 06:48:00,48.2,33.2,29.54,North,2,3.0,13.0,56,0.00,,,0.00,95,Wunderground v.1.15,2013-09-21 12:48:00,
2013-09-21 06:54:00,48.3,31.9,29.54,SE,132,3.0,13.0,53,0.00,,,0.00,44,Wunderground v.1.15,2013-09-21 12:54:00,
2013-09-21 07:00:00,48.5,33.1,29.54,NE,52,2.0,2.0,55,0.00,,,0.00,93,Wunderground v.1.15,2013-09-21 13:00:00,
2013-09-21 07:06:00,48.5,32.6,29.54,NE,52,2.0,13.0,54,0.00,,,0.00,35,Wunderground v.1.15,2013-09-21 13:06:00,
2013-09-21 07:12:00,48.5,33.1,29.54,NE,52,2.0,13.0,55,0.00,,,0.00,58,Wunderground v.1.15,2013-09-21 13:12:00,
2013-09-21 07:18:00,48.5,35.2,29.54,NE,52,1.0,13.0,60,0.00,,,0.00,39,Wunderground v.1.15,2013-09-21 13:18:00,
2013-09-21 07:24:00,48.5,34.4,29.54,NW,319,2.0,13.0,58,0.00,,,0.00,7,Wunderground v.1.15,2013-09-21 13:24:00,
2013-09-21 07:30:00,48.5,34.8,29.54,WSW,258,4.0,13.0,59,0.00,,,0.00,0,Wunderground v.1.15,2013-09-21 13:30:00,
2013-09-21 07:36:00,48.8,33.3,29.54,WSW,245,4.0,13.0,55,0.00,,,0.00,0,Wunderground v.1.15,2013-09-21 13:36:00,
2013-09-21 07:42:00,49.1,33.6,29.53,West,260,5.0,13.0,55,0.00,,,0.00,0,Wunderground v.1.15,2013-09-21 13:42:00,
2013-09-21 07:48:00,49.2,32.8,29.53,WSW,237,5.0,13.0,53,0.00,,,0.00,0,Wunderground v.1.15,2013-09-21 13:48:00,
2013-09-21 07:54:00,49.1,34.5,29.53,WSW,240,7.0,13.0,57,0.00,,,0.00,0,Wunderground v.1.15,2013-09-21 13:54:00,
2013-09-21 08:00:00,49.1,33.2,29.53,SSW,211,6.0,13.0,54,0.00,,,0.00,0,Wunderground v.1.15,2013-09-21 14:00:00,
2013-09-21 08:06:00,49.6,33.2,29.54,SSW,193,5.0,13.0,53,0.00,,,0.00,0,Wunderground v.1.15,2013-09-21 14:06:00,
2013-09-21 08:12:00,50.2,32.8,29.53,South,172,5.0,13.0,51,0.00,,,0.00,0,Wunderground v.1.15,2013-09-21 14:12:00,
2013-09-21 08:18:00,50.9,33.4,29.53,SSW,206,5.0,13.0,51,0.00,,,0.00,0,Wunderground v.1.15,2013-09-21 14:18:00,
2013-09-21 08:24:00,51.2,32.7,29.53,South,186,5.0,13.0,49,0.00,,,0.00,0,Wunderground v.1.15,2013-09-21 14:24:00,
2013-09-21 08:30:00,51.7,33.1,29.53,SE,128,5.0,13.0,49,0.00,,,0.00,0,Wunderground v.1.15,2013-09-21 14:30:00,
2013-09-21 08:36:00,52.1,34.0,29.53,SE,125,5.0,13.0,50,0.00,,,0.00,0,Wunderground v.1.15,2013-09-21 14:36:00,
2013-09-21 08:42:00,52.4,33.8,29.53,SE,129,4.0,13.0,49,0.00,,,0.00,0,Wunderground v.1.15,2013-09-21 14:42:00,
2013-09-21 08:48:00,52.5,34.4,29.53,ESE,106,6.0,13.0,50,0.00,,,0.00,0,Wunderground v.1.15,2013-09-21 14:48:00,
2013-09-21 08:54:00,52.6,34.0,29.53,ENE,71,9.0,13.0,49,0.00,,,0.00,0,Wunderground v.1.15,2013-09-21 14:54:00,
2013-09-21 09:00:00,52.7,34.6,29.53,ENE,78,8.0,8.0,50,0.00,,,0.00,0,Wunderground v.1.15,2013-09-21 15:00:00,
2013-09-21 09:08:00,53.1,33.4,29.53,ENE,71,7.0,13.0,47,0.00,,,0.00,0,Wunderground v.1.15,2013-09-21 15:08:00,
2013-09-21 09:14:00,53.5,33.7,29.53,ENE,68,6.0,13.0,47,0.00,,,0.00,0,Wunderground v.1.15,2013-09-21 15:14:00,
2013-09-21 09:22:00,54.0,33.1,29.53,East,80,6.0,13.0,45,0.00,,,0.00,0,Wunderground v.1.15,2013-09-21 15:22:00,
2013-09-21 09:28:00,54.4,34.0,29.53,East,95,6.0,13.0,46,0.00,,,0.00,0,Wunderground v.1.15,2013-09-21 15:28:00,
2013-09-21 09:34:00,54.9,33.9,29.53,East,95,4.0,13.0,45,0.00,,,0.00,0,Wunderground v.1.15,2013-09-21 15:34:00,
2013-09-21 09:40:00,55.5,33.3,29.53,East,95,2.0,13.0,43,0.00,,,0.00,0,Wunderground v.1.15,2013-09-21 15:40:00,
2013-09-21 09:46:00,56.5,33.7,29.53,NNE,21,2.0,13.0,42,0.00,,,0.00,0,Wunderground v.1.15,2013-09-21 15:46:00,
2013-09-21 09:52:00,57.2,35.5,29.53,NNE,21,3.0,13.0,44,0.00,,,0.00,0,Wunderground v.1.15,2013-09-21 15:52:00,
2013-09-21 10:00:00,58.2,34.0,29.53,NNW,341,4.0,13.0,40,0.00,,,0.00,0,Wunderground v.1.15,2013-09-21 16:00:00,
2013-09-21 10:06:00,59.1,36.0,29.52,NNW,341,3.0,13.0,42,0.00,,,0.00,0,Wunderground v.1.15,2013-09-21 16:06:00,
2013-09-21 10:12:00,59.8,34.8,29.52,East,90,2.0,13.0,39,0.00,,,0.00,0,Wunderground v.1.15,2013-09-21 16:12:00,
2013-09-21 10:18:00,61.3,35.5,29.52,East,96,4.0,13.0,38,0.00,,,0.00,0,Wunderground v.1.15,2013-09-21 16:18:00,
2013-09-21 10:24:00,65.0,31.1,29.52,ENE,62,11.0,15.0,28,0.00,,,0.00,0,Wunderground v.1.15,2013-09-21 16:24:00,
2013-09-21 10:30:00,66.4,30.4,29.51,ENE,69,15.0,15.0,26,0.00,,,0.00,0,Wunderground v.1.15,2013-09-21 16:30:00,
2013-09-21 10:36:00,67.0,31.0,29.49,ENE,64,16.0,19.0,26,0.00,,,0.00,0,Wunderground v.1.15,2013-09-21 16:36:00,
2013-09-21 10:42:00,67.0,32.8,29.51,East,85,15.0,16.0,28,0.00,,,0.00,0,Wunderground v.1.15,2013-09-21 16:42:00,
2013-09-21 10:48:00,66.7,29.7,29.50,East,94,16.0,20.0,25,0.00,,,0.00,0,Wunderground v.1.15,2013-09-21 16:48:00,
2013-09-21 10:54:00,66.4,31.4,29.50,ENE,77,16.0,17.0,27,0.00,,,0.00,0,Wunderground v.1.15,2013-09-21 16:54:00,
2013-09-21 11:00:00,66.9,31.8,29.50,ENE,66,16.0,23.0,27,0.00,,,0.00,0,Wunderground v.1.15,2013-09-21 17:00:00,
2013-09-21 11:06:00,67.2,31.1,29.50,ENE,71,17.0,23.0,26,0.00,,,0.00,0,Wunderground v.1.15,2013-09-21 17:06:00,
2013-09-21 11:12:00,67.4,32.2,29.48,ENE,76,17.0,23.0,27,0.00,,,0.00,0,Wunderground v.1.15,2013-09-21 17:12:00,
2013-09-21 11:18:00,67.2,32.1,29.48,East,91,16.0,23.0,27,0.00,,,0.00,0,Wunderground v.1.15,2013-09-21 17:18:00,
2013-09-21 11:24:00,67.6,29.5,29.50,East,83,14.0,23.0,24,0.00,,,0.00,0,Wunderground v.1.15,2013-09-21 17:24:00,
2013-09-21 11:30:00,68.0,31.8,29.50,East,90,14.0,14.0,26,0.00,,,0.00,0,Wunderground v.1.15,2013-09-21 17:30:00,
2013-09-21 11:36:00,68.2,30.0,29.50,East,100,15.0,23.0,24,0.00,,,0.00,0,Wunderground v.1.15,2013-09-21 17:36:00,
2013-09-21 11:42:00,68.5,33.2,29.50,ESE,102,15.0,23.0,27,0.00,,,0.00,0,Wunderground v.1.15,2013-09-21 17:42:00,
2013-09-21 11:48:00,68.6,33.3,29.48,ESE,105,16.0,23.0,27,0.00,,,0.00,0,Wunderground v.1.15,2013-09-21 17:48:00,
2013-09-21 11:54:00,69.0,31.7,29.48,ESE,104,14.0,23.0,25,0.00,,,0.00,0,Wunderground v.1.15,2013-09-21 17:54:00,
2013-09-21 12:00:00,69.4,34.9,29.48,East,87,14.0,14.0,28,0.00,,,0.00,0,Wunderground v.1.15,2013-09-21 18:00:00,
2013-09-21 12:06:00,69.5,33.1,29.48,SE,126,14.0,23.0,26,0.00,,,0.00,0,Wunderground v.1.15,2013-09-21 18:06:00,
2013-09-21 12:12:00,70.0,31.5,29.48,East,90,14.0,23.0,24,0.00,,,0.00,0,Wunderground v.1.15,2013-09-21 18:12:00,
2013-09-21 12:18:00,70.2,33.7,29.48,East,93,12.0,23.0,26,0.00,,,0.00,0,Wunderground v.1.15,2013-09-21 18:18:00,
2013-09-21 12:24:00,70.0,34.5,29.47,ESE,123,12.0,23.0,27,0.00,,,0.00,0,Wunderground v.1.15,2013-09-21 18:24:00,
2013-09-21 12:30:00,70.2,31.7,29.47,ESE,123,15.0,24.0,24,0.00,,,0.00,0,Wunderground v.1.15,2013-09-21 18:30:00,
2013-09-21 12:36:00,70.1,34.5,29.46,SE,139,20.0,24.0,27,0.00,,,0.00,0,Wunderground v.1.15,2013-09-21 18:36:00,
2013-09-21 12:48:00,70.4,32.9,29.46,SE,141,20.0,23.0,25,0.00,,,0.00,0,Wunderground v.1.15,2013-09-21 18:48:00,
2013-09-21 12:54:00,70.8,31.1,29.46,SE,132,20.0,23.0,23,0.00,,,0.00,0,Wunderground v.1.15,2013-09-21 18:54:00,
2013-09-21 13:00:00,70.7,32.1,29.45,ESE,120,19.0,19.0,24,0.00,,,0.00,0,Wunderground v.1.15,2013-09-21 19:00:00,
2013-09-21 13:06:00,71.0,30.2,29.45,SE,128,19.0,26.0,22,0.00,,,0.00,0,Wunderground v.1.15,2013-09-21 19:06:00,
2013-09-21 13:12:00,71.4,31.6,29.44,ESE,114,20.0,23.0,23,0.00,,,0.00,0,Wunderground v.1.15,2013-09-21 19:12:00,
2013-09-21 13:22:00,71.8,28.5,29.43,SE,133,20.0,23.0,20,0.00,,,0.00,0,Wunderground v.1.15,2013-09-21 19:22:00,
2013-09-21 13:34:00,71.9,33.1,29.43,SE,131,21.0,23.0,24,0.00,,,0.00,0,Wunderground v.1.15,2013-09-21 19:34:00,
2013-09-21 13:40:00,72.2,28.9,29.43,ESE,122,21.0,21.0,20,0.00,,,0.00,0,Wunderground v.1.15,2013-09-21 19:40:00,
2013-09-21 13:46:00,72.2,28.9,29.42,SE,133,22.0,24.0,20,0.00,,,0.00,0,Wunderground v.1.15,2013-09-21 19:46:00,
2013-09-21 13:52:00,72.2,31.2,29.43,SE,143,21.0,23.0,22,0.00,,,0.00,0,Wunderground v.1.15,2013-09-21 19:52:00,
2013-09-21 13:58:00,72.4,29.0,29.43,SSE,147,22.0,23.0,20,0.00,,,0.00,0,Wunderground v.1.15,2013-09-21 19:58:00,